createdAt,value
2022-07-28T00:00:08.534Z,15.53
2022-07-28T00:01:07.437Z,15.52
2022-07-28T00:02:07.472Z,15.51
2022-07-28T00:03:07.478Z,15.51
2022-07-28T00:04:07.471Z,15.51
2022-07-28T00:05:07.531Z,15.51
2022-07-28T00:06:07.518Z,15.50
2022-07-28T00:07:07.505Z,15.49
2022-07-28T00:08:07.565Z,15.48
2022-07-28T00:09:07.538Z,15.47
2022-07-28T00:10:07.544Z,15.46
2022-07-28T00:11:07.592Z,15.43
2022-07-28T00:12:07.545Z,15.43
2022-07-28T00:13:07.627Z,15.44
2022-07-28T00:14:07.570Z,15.43
2022-07-28T00:15:07.608Z,15.44
2022-07-28T00:16:07.647Z,15.41
2022-07-28T00:17:07.623Z,15.40
2022-07-28T00:18:07.657Z,15.38
2022-07-28T00:19:07.639Z,15.39
2022-07-28T00:20:07.658Z,15.38
2022-07-28T00:21:07.671Z,15.38
2022-07-28T00:22:07.684Z,15.37
2022-07-28T00:23:07.709Z,15.37
2022-07-28T00:24:07.694Z,15.34
2022-07-28T00:25:07.715Z,15.32
2022-07-28T00:26:07.808Z,15.29
2022-07-28T00:27:07.740Z,15.27
2022-07-28T00:28:07.774Z,15.24
2022-07-28T00:29:07.756Z,15.24
2022-07-28T00:30:07.779Z,15.23
2022-07-28T00:31:09.478Z,15.22
2022-07-28T00:32:07.833Z,15.20
2022-07-28T00:33:07.814Z,15.17
2022-07-28T00:34:07.838Z,15.15
2022-07-28T00:35:08.291Z,15.14
2022-07-28T00:36:10.363Z,15.13
2022-07-28T00:37:07.791Z,15.11
2022-07-28T00:38:07.825Z,15.10
2022-07-28T00:39:07.808Z,15.09
2022-07-28T00:40:07.776Z,15.06
2022-07-28T00:41:07.811Z,15.06
2022-07-28T00:42:07.802Z,15.06
2022-07-28T00:43:07.817Z,15.06
2022-07-28T00:44:07.809Z,15.06
2022-07-28T00:45:07.806Z,15.06
2022-07-28T00:46:08.034Z,15.03
2022-07-28T00:47:07.819Z,15.02
2022-07-28T00:48:07.832Z,15.01
2022-07-28T00:49:07.922Z,14.99
2022-07-28T00:50:07.828Z,14.97
2022-07-28T00:51:07.823Z,14.95
2022-07-28T00:52:07.816Z,14.93
2022-07-28T00:53:07.866Z,14.92
2022-07-28T00:54:07.820Z,14.89
2022-07-28T00:55:07.859Z,14.87
2022-07-28T00:56:07.820Z,14.87
2022-07-28T00:57:07.805Z,14.86
2022-07-28T00:58:07.821Z,14.85
2022-07-28T00:59:07.852Z,14.83
2022-07-28T01:00:07.813Z,14.80
2022-07-28T01:01:07.867Z,14.78
2022-07-28T01:02:07.968Z,14.76
2022-07-28T01:03:07.902Z,14.73
2022-07-28T01:04:07.850Z,14.70
2022-07-28T01:05:07.808Z,14.66
2022-07-28T01:06:07.821Z,14.64
2022-07-28T01:07:07.850Z,14.59
2022-07-28T01:08:07.850Z,14.57
2022-07-28T01:09:07.842Z,14.56
2022-07-28T01:10:07.829Z,14.56
2022-07-28T01:11:07.885Z,14.53
2022-07-28T01:12:07.832Z,14.52
2022-07-28T01:13:07.863Z,14.51
2022-07-28T01:14:07.847Z,14.50
2022-07-28T01:15:07.837Z,14.49
2022-07-28T01:16:07.913Z,14.48
2022-07-28T01:17:07.848Z,14.47
2022-07-28T01:18:07.869Z,14.46
2022-07-28T01:19:07.889Z,14.46
2022-07-28T01:20:07.845Z,14.46
2022-07-28T01:21:07.834Z,14.46
2022-07-28T01:22:07.883Z,14.46
2022-07-28T01:23:07.872Z,14.46
2022-07-28T01:24:07.863Z,14.46
2022-07-28T01:25:07.850Z,14.46
2022-07-28T01:26:07.835Z,14.46
2022-07-28T01:27:07.891Z,14.43
2022-07-28T01:28:07.905Z,14.41
2022-07-28T01:29:07.861Z,14.39
2022-07-28T01:30:07.873Z,14.37
2022-07-28T01:31:07.975Z,14.36
2022-07-28T01:32:07.898Z,14.34
2022-07-28T01:33:07.885Z,14.33
2022-07-28T01:34:07.895Z,14.31
2022-07-28T01:35:07.882Z,14.30
2022-07-28T01:36:07.859Z,14.31
2022-07-28T01:37:07.887Z,14.29
2022-07-28T01:38:07.872Z,14.29
2022-07-28T01:39:07.904Z,14.25
2022-07-28T01:40:07.912Z,14.25
2022-07-28T01:41:07.911Z,14.24
2022-07-28T01:42:07.870Z,14.24
2022-07-28T01:43:08.397Z,14.23
2022-07-28T01:44:07.879Z,14.23
2022-07-28T01:45:08.012Z,14.21
2022-07-28T01:46:07.971Z,14.21
2022-07-28T01:47:07.880Z,14.18
2022-07-28T01:48:07.899Z,14.17
2022-07-28T01:49:07.982Z,14.17
2022-07-28T01:50:07.878Z,14.18
2022-07-28T01:51:07.896Z,14.19
2022-07-28T01:52:07.934Z,14.19
2022-07-28T01:53:07.929Z,14.18
2022-07-28T01:54:07.904Z,14.17
2022-07-28T01:55:07.903Z,14.16
2022-07-28T01:56:07.928Z,14.14
2022-07-28T01:57:07.999Z,14.15
2022-07-28T01:58:07.940Z,14.14
2022-07-28T01:59:07.964Z,14.14
2022-07-28T02:00:07.972Z,14.13
2022-07-28T02:01:08.052Z,14.14
2022-07-28T02:02:08.106Z,14.14
2022-07-28T02:03:08.027Z,14.13
2022-07-28T02:04:08.040Z,14.13
2022-07-28T02:05:08.103Z,14.14
2022-07-28T02:06:08.092Z,14.14
2022-07-28T02:07:08.093Z,14.13
2022-07-28T02:08:08.113Z,14.14
2022-07-28T02:09:08.081Z,14.13
2022-07-28T02:10:08.119Z,14.14
2022-07-28T02:11:09.697Z,14.14
2022-07-28T02:12:08.180Z,14.13
2022-07-28T02:13:08.155Z,14.12
2022-07-28T02:14:08.167Z,14.12
2022-07-28T02:15:08.163Z,14.11
2022-07-28T02:16:08.219Z,14.10
2022-07-28T02:17:08.200Z,14.10
2022-07-28T02:18:08.224Z,14.08
2022-07-28T02:19:08.222Z,14.07
2022-07-28T02:20:08.244Z,14.06
2022-07-28T02:21:08.236Z,14.04
2022-07-28T02:22:08.258Z,14.03
2022-07-28T02:23:08.277Z,13.98
2022-07-28T02:24:08.314Z,13.97
2022-07-28T02:25:08.305Z,13.98
2022-07-28T02:26:08.274Z,13.96
2022-07-28T02:27:08.321Z,14.00
2022-07-28T02:28:08.354Z,13.99
2022-07-28T02:29:08.381Z,14.01
2022-07-28T02:30:08.368Z,14.00
2022-07-28T02:31:08.395Z,14.01
2022-07-28T02:32:27.339Z,14.00
2022-07-28T02:33:08.395Z,13.99
2022-07-28T02:34:08.396Z,13.99
2022-07-28T02:35:09.453Z,13.98
2022-07-28T02:36:08.381Z,13.97
2022-07-28T02:37:08.372Z,13.97
2022-07-28T02:38:08.416Z,13.96
2022-07-28T02:39:08.419Z,13.94
2022-07-28T02:40:08.355Z,13.93
2022-07-28T02:41:08.405Z,13.90
2022-07-28T02:42:08.387Z,13.90
2022-07-28T02:43:08.417Z,13.89
2022-07-28T02:44:08.431Z,13.88
2022-07-28T02:45:08.395Z,13.87
2022-07-28T02:46:08.500Z,13.87
2022-07-28T02:47:08.388Z,13.86
2022-07-28T02:48:08.385Z,13.84
2022-07-28T02:49:08.480Z,13.83
2022-07-28T02:50:08.425Z,13.81
2022-07-28T02:51:08.374Z,13.80
2022-07-28T02:52:08.418Z,13.80
2022-07-28T02:53:15.509Z,13.80
2022-07-28T02:54:08.389Z,13.80
2022-07-28T02:55:08.403Z,13.77
2022-07-28T02:56:08.389Z,13.77
2022-07-28T02:57:08.438Z,13.77
2022-07-28T02:58:08.436Z,13.77
2022-07-28T02:59:08.412Z,13.77
2022-07-28T03:00:08.398Z,13.77
2022-07-28T03:01:08.460Z,13.78
2022-07-28T03:02:08.393Z,13.78
2022-07-28T03:03:08.403Z,13.78
2022-07-28T03:04:08.387Z,13.78
2022-07-28T03:05:11.317Z,13.78
2022-07-28T03:06:08.407Z,13.77
2022-07-28T03:07:08.416Z,13.76
2022-07-28T03:08:08.418Z,13.75
2022-07-28T03:09:08.472Z,13.73
2022-07-28T03:10:08.416Z,13.71
2022-07-28T03:11:08.497Z,13.69
2022-07-28T03:12:08.492Z,13.67
2022-07-28T03:13:08.488Z,13.66
2022-07-28T03:14:08.497Z,13.64
2022-07-28T03:15:08.508Z,13.64
2022-07-28T03:16:08.534Z,13.65
2022-07-28T03:17:08.578Z,13.64
2022-07-28T03:18:08.552Z,13.62
2022-07-28T03:19:08.547Z,13.64
2022-07-28T03:20:08.592Z,13.64
2022-07-28T03:21:08.603Z,13.65
2022-07-28T03:22:10.330Z,13.67
2022-07-28T03:23:08.610Z,13.69
2022-07-28T03:24:08.639Z,13.69
2022-07-28T03:25:08.610Z,13.70
2022-07-28T03:26:08.667Z,13.69
2022-07-28T03:27:08.647Z,13.66
2022-07-28T03:28:08.669Z,13.66
2022-07-28T03:29:08.661Z,13.62
2022-07-28T03:30:08.679Z,13.60
2022-07-28T03:31:08.792Z,13.57
2022-07-28T03:32:08.732Z,13.55
2022-07-28T03:33:08.754Z,13.53
2022-07-28T03:34:08.729Z,13.50
2022-07-28T03:35:08.731Z,13.48
2022-07-28T03:36:08.744Z,13.43
2022-07-28T03:37:08.762Z,13.39
2022-07-28T03:38:08.834Z,13.34
2022-07-28T03:39:08.799Z,13.29
2022-07-28T03:40:08.795Z,13.26
2022-07-28T03:41:08.849Z,13.24
2022-07-28T03:42:08.816Z,13.22
2022-07-28T03:43:08.875Z,13.19
2022-07-28T03:44:08.850Z,13.19
2022-07-28T03:45:08.857Z,13.19
2022-07-28T03:46:13.133Z,13.18
2022-07-28T03:47:08.869Z,13.17
2022-07-28T03:48:08.901Z,13.16
2022-07-28T03:49:08.923Z,13.16
2022-07-28T03:50:08.898Z,13.15
2022-07-28T03:51:08.870Z,13.14
2022-07-28T03:52:08.918Z,13.13
2022-07-28T03:53:08.912Z,13.11
2022-07-28T03:54:08.921Z,13.11
2022-07-28T03:55:08.894Z,13.09
2022-07-28T03:56:08.870Z,13.09
2022-07-28T03:57:08.855Z,13.09
2022-07-28T03:58:08.911Z,13.09
2022-07-28T03:59:08.874Z,13.09
2022-07-28T04:00:09.899Z,13.11
2022-07-28T04:01:08.967Z,13.11
2022-07-28T04:02:08.971Z,13.13
2022-07-28T04:03:22.094Z,13.14
2022-07-28T04:04:08.899Z,13.15
2022-07-28T04:05:08.925Z,13.16
2022-07-28T04:06:08.922Z,13.17
2022-07-28T04:07:08.895Z,13.18
2022-07-28T04:08:08.915Z,13.19
2022-07-28T04:09:08.914Z,13.19
2022-07-28T04:10:08.914Z,13.19
2022-07-28T04:11:08.943Z,13.21
2022-07-28T04:12:08.919Z,13.22
2022-07-28T04:13:08.972Z,13.25
2022-07-28T04:14:13.231Z,13.26
2022-07-28T04:15:08.943Z,13.29
2022-07-28T04:16:08.894Z,13.30
2022-07-28T04:17:08.963Z,13.30
2022-07-28T04:18:08.934Z,13.32
2022-07-28T04:19:08.913Z,13.33
2022-07-28T04:20:09.122Z,13.32
2022-07-28T04:21:08.934Z,13.32
2022-07-28T04:22:08.936Z,13.32
2022-07-28T04:23:08.961Z,13.32
2022-07-28T04:24:08.947Z,13.34
2022-07-28T04:25:08.921Z,13.36
2022-07-28T04:26:08.912Z,13.38
2022-07-28T04:27:08.912Z,13.41
2022-07-28T04:28:08.959Z,13.43
2022-07-28T04:29:08.916Z,13.45
2022-07-28T04:30:08.934Z,13.48
2022-07-28T04:31:09.048Z,13.49
2022-07-28T04:32:08.909Z,13.51
2022-07-28T04:33:08.993Z,13.53
2022-07-28T04:34:08.942Z,13.54
2022-07-28T04:35:08.918Z,13.53
2022-07-28T04:36:08.956Z,13.56
2022-07-28T04:37:08.997Z,13.57
2022-07-28T04:38:08.938Z,13.58
2022-07-28T04:39:08.939Z,13.60
2022-07-28T04:40:08.922Z,13.61
2022-07-28T04:41:08.938Z,13.64
2022-07-28T04:42:08.947Z,13.67
2022-07-28T04:43:08.943Z,13.69
2022-07-28T04:44:08.961Z,13.73
2022-07-28T04:45:08.956Z,13.75
2022-07-28T04:46:11.986Z,13.77
2022-07-28T04:47:08.931Z,13.78
2022-07-28T04:48:08.991Z,13.76
2022-07-28T04:49:08.965Z,13.75
2022-07-28T04:50:08.940Z,13.73
2022-07-28T04:51:08.956Z,13.73
2022-07-28T04:52:08.970Z,13.74
2022-07-28T04:53:09.004Z,13.75
2022-07-28T04:54:08.951Z,13.77
2022-07-28T04:55:08.987Z,13.80
2022-07-28T04:56:08.982Z,13.82
2022-07-28T04:57:10.362Z,13.85
2022-07-28T04:58:09.447Z,13.88
2022-07-28T04:59:08.963Z,13.89
2022-07-28T05:00:08.985Z,13.92
2022-07-28T05:01:09.066Z,13.95
2022-07-28T05:02:08.975Z,13.97
2022-07-28T05:03:08.963Z,13.99
2022-07-28T05:04:09.045Z,14.03
2022-07-28T05:05:09.042Z,14.05
2022-07-28T05:06:08.991Z,14.07
2022-07-28T05:07:12.795Z,14.08
2022-07-28T05:08:08.975Z,14.09
2022-07-28T05:09:08.974Z,14.09
2022-07-28T05:10:08.999Z,14.10
2022-07-28T05:11:08.974Z,14.11
2022-07-28T05:12:08.967Z,14.12
2022-07-28T05:13:09.037Z,14.12
2022-07-28T05:14:08.979Z,14.11
2022-07-28T05:15:09.003Z,14.13
2022-07-28T05:16:09.072Z,14.14
2022-07-28T05:17:09.807Z,14.16
2022-07-28T05:18:08.983Z,14.17
2022-07-28T05:19:08.990Z,14.18
2022-07-28T05:20:09.007Z,14.18
2022-07-28T05:21:09.015Z,14.19
2022-07-28T05:22:08.986Z,14.21
2022-07-28T05:23:08.999Z,14.22
2022-07-28T05:24:08.984Z,14.23
2022-07-28T05:25:09.042Z,14.24
2022-07-28T05:26:08.990Z,14.25
2022-07-28T05:27:09.016Z,14.25
2022-07-28T05:28:09.007Z,14.26
2022-07-28T05:29:08.998Z,14.27
2022-07-28T05:30:09.002Z,14.28
2022-07-28T05:31:09.005Z,14.30
2022-07-28T05:32:16.823Z,14.32
2022-07-28T05:33:08.993Z,14.35
2022-07-28T05:34:09.007Z,14.37
2022-07-28T05:35:09.007Z,14.40
2022-07-28T05:36:09.024Z,14.43
2022-07-28T05:37:09.008Z,14.46
2022-07-28T05:38:10.925Z,14.47
2022-07-28T05:39:09.012Z,14.48
2022-07-28T05:40:09.000Z,14.51
2022-07-28T05:41:09.008Z,14.53
2022-07-28T05:42:09.012Z,14.56
2022-07-28T05:43:09.010Z,14.56
2022-07-28T05:44:09.009Z,14.60
2022-07-28T05:45:16.411Z,14.61
2022-07-28T05:46:09.050Z,14.62
2022-07-28T05:47:09.000Z,14.61
2022-07-28T05:48:09.026Z,14.62
2022-07-28T05:49:09.092Z,14.62
2022-07-28T05:50:09.017Z,14.64
2022-07-28T05:51:09.012Z,14.64
2022-07-28T05:52:09.035Z,14.64
2022-07-28T05:53:09.029Z,14.68
2022-07-28T05:54:09.024Z,14.70
2022-07-28T05:55:09.020Z,14.71
2022-07-28T05:56:09.050Z,14.72
2022-07-28T05:57:09.037Z,14.73
2022-07-28T05:58:09.076Z,14.72
2022-07-28T05:59:09.055Z,14.73
2022-07-28T06:00:09.030Z,14.74
2022-07-28T06:01:09.101Z,14.76
2022-07-28T06:02:09.088Z,14.78
2022-07-28T06:03:09.052Z,14.83
2022-07-28T06:04:26.566Z,14.87
2022-07-28T06:05:09.075Z,14.94
2022-07-28T06:06:15.653Z,15.03
2022-07-28T06:07:09.043Z,15.10
2022-07-28T06:08:09.081Z,15.17
2022-07-28T06:09:09.064Z,15.25
2022-07-28T06:10:09.029Z,15.33
2022-07-28T06:11:09.037Z,15.38
2022-07-28T06:12:09.054Z,15.45
2022-07-28T06:13:09.074Z,15.49
2022-07-28T06:14:09.076Z,15.55
2022-07-28T06:15:09.072Z,15.60
2022-07-28T06:16:13.019Z,15.67
2022-07-28T06:17:09.078Z,15.74
2022-07-28T06:18:09.097Z,15.83
2022-07-28T06:19:09.033Z,15.88
2022-07-28T06:20:09.050Z,15.94
2022-07-28T06:21:09.073Z,15.99
2022-07-28T06:22:09.076Z,16.02
2022-07-28T06:23:09.067Z,16.04
2022-07-28T06:24:09.058Z,16.07
2022-07-28T06:25:09.083Z,16.12
2022-07-28T06:26:09.069Z,16.17
2022-07-28T06:27:09.056Z,16.21
2022-07-28T06:28:09.085Z,16.22
2022-07-28T06:29:09.095Z,16.23
2022-07-28T06:30:09.076Z,16.25
2022-07-28T06:31:09.122Z,16.29
2022-07-28T06:32:09.105Z,16.32
2022-07-28T06:33:12.707Z,16.36
2022-07-28T06:34:09.072Z,16.38
2022-07-28T06:35:09.085Z,16.38
2022-07-28T06:36:09.076Z,16.39
2022-07-28T06:37:09.065Z,16.41
2022-07-28T06:38:09.082Z,16.45
2022-07-28T06:39:09.087Z,16.50
2022-07-28T06:40:09.118Z,16.55
2022-07-28T06:41:09.089Z,16.60
2022-07-28T06:42:09.079Z,16.66
2022-07-28T06:43:09.098Z,16.69
2022-07-28T06:44:09.090Z,16.69
2022-07-28T06:45:09.057Z,16.71
2022-07-28T06:46:09.094Z,16.73
2022-07-28T06:47:09.180Z,16.75
2022-07-28T06:48:09.147Z,16.75
2022-07-28T06:49:09.143Z,16.77
2022-07-28T06:50:26.328Z,16.82
2022-07-28T06:51:09.102Z,16.94
2022-07-28T06:52:09.098Z,17.09
2022-07-28T06:53:09.103Z,17.23
2022-07-28T06:54:11.416Z,17.40
2022-07-28T06:55:09.126Z,17.55
2022-07-28T06:56:09.125Z,17.65
2022-07-28T06:57:09.121Z,17.72
2022-07-28T06:58:09.112Z,17.79
2022-07-28T06:59:09.110Z,17.85
2022-07-28T07:00:09.123Z,17.86
2022-07-28T07:01:09.166Z,17.81
2022-07-28T07:02:09.125Z,17.72
2022-07-28T07:03:09.863Z,17.69
2022-07-28T07:04:09.185Z,17.74
2022-07-28T07:05:09.103Z,17.87
2022-07-28T07:06:09.105Z,18.02
2022-07-28T07:07:14.979Z,18.21
2022-07-28T07:08:09.123Z,18.39
2022-07-28T07:09:09.128Z,18.49
2022-07-28T07:10:09.112Z,18.58
2022-07-28T07:11:09.111Z,18.66
2022-07-28T07:12:09.103Z,18.80
2022-07-28T07:13:09.121Z,18.92
2022-07-28T07:14:09.137Z,19.11
2022-07-28T07:15:09.100Z,19.30
2022-07-28T07:16:09.170Z,19.43
2022-07-28T07:17:09.132Z,19.49
2022-07-28T07:18:09.183Z,19.43
2022-07-28T07:19:13.967Z,19.45
2022-07-28T07:20:09.119Z,19.48
2022-07-28T07:21:09.178Z,19.55
2022-07-28T07:22:09.156Z,19.57
2022-07-28T07:23:09.163Z,19.64
2022-07-28T07:24:09.122Z,19.79
2022-07-28T07:25:09.170Z,20.04
2022-07-28T07:26:09.119Z,20.30
2022-07-28T07:27:09.141Z,20.57
2022-07-28T07:28:09.177Z,20.83
2022-07-28T07:29:09.132Z,20.99
2022-07-28T07:30:09.185Z,21.18
2022-07-28T07:31:09.223Z,21.37
2022-07-28T07:32:10.966Z,21.42
2022-07-28T07:33:10.301Z,21.60
2022-07-28T07:34:09.136Z,21.69
2022-07-28T07:35:09.149Z,21.76
2022-07-28T07:36:09.133Z,21.57
2022-07-28T07:37:09.184Z,21.34
2022-07-28T07:38:09.189Z,21.42
2022-07-28T07:39:09.128Z,21.67
2022-07-28T07:40:09.115Z,21.94
2022-07-28T07:41:09.157Z,22.23
2022-07-28T07:42:09.182Z,22.57
2022-07-28T07:43:09.161Z,22.80
2022-07-28T07:44:09.125Z,22.85
2022-07-28T07:45:09.162Z,22.82
2022-07-28T07:46:09.204Z,22.75
2022-07-28T07:47:09.149Z,22.63
2022-07-28T07:48:09.167Z,22.59
2022-07-28T07:49:09.213Z,22.66
2022-07-28T07:50:09.183Z,22.83
2022-07-28T07:51:15.345Z,22.81
2022-07-28T07:52:09.163Z,22.72
2022-07-28T07:53:09.157Z,22.81
2022-07-28T07:54:09.912Z,22.89
2022-07-28T07:55:09.180Z,23.10
2022-07-28T07:56:09.162Z,23.24
2022-07-28T07:57:09.175Z,23.34
2022-07-28T07:58:09.207Z,23.48
2022-07-28T07:59:09.191Z,23.65
2022-07-28T08:00:28.295Z,23.78
2022-07-28T08:01:09.199Z,23.81
2022-07-28T08:02:09.277Z,23.91
2022-07-28T08:03:11.372Z,24.10
2022-07-28T08:04:09.229Z,24.28
2022-07-28T08:05:09.258Z,24.29
2022-07-28T08:06:09.231Z,24.43
2022-07-28T08:07:09.188Z,24.47
2022-07-28T08:08:09.219Z,24.47
2022-07-28T08:09:09.221Z,24.40
2022-07-28T08:10:09.221Z,24.45
2022-07-28T08:11:09.204Z,24.58
2022-07-28T08:12:09.185Z,24.77
2022-07-28T08:13:09.209Z,25.05
2022-07-28T08:14:09.260Z,25.27
2022-07-28T08:15:09.203Z,25.17
2022-07-28T08:16:09.245Z,24.86
2022-07-28T08:17:09.219Z,24.55
2022-07-28T08:18:09.225Z,24.47
2022-07-28T08:19:36.158Z,24.74
2022-07-28T08:20:36.208Z,24.90
2022-07-28T08:21:36.223Z,24.85
2022-07-28T08:22:36.192Z,24.84
2022-07-28T08:23:36.194Z,24.81
2022-07-28T08:24:36.231Z,24.90
2022-07-28T08:25:36.193Z,25.00
2022-07-28T08:26:36.182Z,24.79
2022-07-28T08:27:36.221Z,24.77
2022-07-28T08:28:36.184Z,24.68
2022-07-28T08:29:36.201Z,24.66
2022-07-28T08:30:36.219Z,24.82
2022-07-28T08:31:36.241Z,24.91
2022-07-28T08:32:36.197Z,25.08
2022-07-28T08:33:36.197Z,25.16
2022-07-28T08:34:36.350Z,25.16
2022-07-28T08:35:36.217Z,25.27
2022-07-28T08:36:36.232Z,25.40
2022-07-28T08:37:36.192Z,25.49
2022-07-28T08:38:36.213Z,25.52
2022-07-28T08:39:36.213Z,25.46
2022-07-28T08:40:36.221Z,25.51
2022-07-28T08:41:36.246Z,25.43
2022-07-28T08:42:36.217Z,25.28
2022-07-28T08:43:36.219Z,25.20
2022-07-28T08:44:36.219Z,25.14
2022-07-28T08:45:37.268Z,25.15
2022-07-28T08:46:36.312Z,25.16
2022-07-28T08:47:46.059Z,25.12
2022-07-28T08:48:36.337Z,25.19
2022-07-28T08:49:36.221Z,25.26
2022-07-28T08:50:36.208Z,25.30
2022-07-28T08:51:36.329Z,25.44
2022-07-28T08:52:36.247Z,25.63
2022-07-28T08:53:36.219Z,25.67
2022-07-28T08:54:36.215Z,25.60
2022-07-28T08:55:36.367Z,25.35
2022-07-28T08:56:36.374Z,25.40
2022-07-28T08:57:36.401Z,25.56
2022-07-28T08:58:36.411Z,25.59
2022-07-28T08:59:36.415Z,25.58
2022-07-28T09:00:36.467Z,25.56
2022-07-28T09:01:38.983Z,25.68
2022-07-28T09:02:36.590Z,25.87
2022-07-28T09:03:36.494Z,25.94
2022-07-28T09:04:36.434Z,26.09
2022-07-28T09:05:36.438Z,26.26
2022-07-28T09:06:36.462Z,26.28
2022-07-28T09:07:36.468Z,26.25
2022-07-28T09:08:36.435Z,26.30
2022-07-28T09:09:36.462Z,26.33
2022-07-28T09:10:36.472Z,26.25
2022-07-28T09:11:36.471Z,26.25
2022-07-28T09:12:36.503Z,26.27
2022-07-28T09:13:36.508Z,26.38
2022-07-28T09:14:36.516Z,26.44
2022-07-28T09:15:36.538Z,26.51
2022-07-28T09:16:36.522Z,26.65
2022-07-28T09:17:36.539Z,26.78
2022-07-28T09:18:36.574Z,26.90
2022-07-28T09:19:36.592Z,26.92
2022-07-28T09:20:36.578Z,26.67
2022-07-28T09:21:36.613Z,26.72
2022-07-28T09:22:36.608Z,26.75
2022-07-28T09:23:44.009Z,26.74
2022-07-28T09:24:36.620Z,26.74
2022-07-28T09:25:36.605Z,26.80
2022-07-28T09:26:36.627Z,26.74
2022-07-28T09:27:36.617Z,26.75
2022-07-28T09:28:36.647Z,26.68
2022-07-28T09:29:36.646Z,26.60
2022-07-28T09:30:36.649Z,26.54
2022-07-28T09:31:36.727Z,26.40
2022-07-28T09:32:36.639Z,26.44
2022-07-28T09:33:43.281Z,26.64
2022-07-28T09:34:36.653Z,26.79
2022-07-28T09:35:36.657Z,26.79
2022-07-28T09:36:36.660Z,26.57
2022-07-28T09:37:36.630Z,26.53
2022-07-28T09:38:36.699Z,26.44
2022-07-28T09:39:36.652Z,26.38
2022-07-28T09:40:36.670Z,26.57
2022-07-28T09:41:36.662Z,26.81
2022-07-28T09:42:36.648Z,26.98
2022-07-28T09:43:36.654Z,27.07
2022-07-28T09:44:36.659Z,27.08
2022-07-28T09:45:36.656Z,27.01
2022-07-28T09:46:36.860Z,26.87
2022-07-28T09:47:36.881Z,27.00
2022-07-28T09:48:36.801Z,27.29
2022-07-28T09:49:36.709Z,27.55
2022-07-28T09:50:36.658Z,27.78
2022-07-28T09:51:36.675Z,27.68
2022-07-28T09:52:36.695Z,27.26
2022-07-28T09:53:36.674Z,27.15
2022-07-28T09:54:40.680Z,27.16
2022-07-28T09:55:36.669Z,27.21
2022-07-28T09:56:36.665Z,27.24
2022-07-28T09:57:36.916Z,27.27
2022-07-28T09:58:36.684Z,27.41
2022-07-28T09:59:36.675Z,27.62
2022-07-28T10:00:36.694Z,27.87
2022-07-28T10:01:37.440Z,28.09
2022-07-28T10:02:36.739Z,28.26
2022-07-28T10:03:36.701Z,28.49
2022-07-28T10:04:36.666Z,28.58
2022-07-28T10:05:36.694Z,28.37
2022-07-28T10:06:36.731Z,28.11
2022-07-28T10:07:36.684Z,27.75
2022-07-28T10:08:36.695Z,27.73
2022-07-28T10:09:36.682Z,27.84
2022-07-28T10:10:36.701Z,28.08
2022-07-28T10:11:41.615Z,28.41
2022-07-28T10:12:36.701Z,28.57
2022-07-28T10:13:36.692Z,28.81
2022-07-28T10:14:36.703Z,29.12
2022-07-28T10:15:36.788Z,29.37
2022-07-28T10:16:36.759Z,29.43
2022-07-28T10:17:36.708Z,29.42
2022-07-28T10:18:36.693Z,29.44
2022-07-28T10:19:36.707Z,29.46
2022-07-28T10:20:36.721Z,29.35
2022-07-28T10:21:36.719Z,29.30
2022-07-28T10:22:42.476Z,29.15
2022-07-28T10:23:36.706Z,29.06
2022-07-28T10:24:36.729Z,29.04
2022-07-28T10:25:36.748Z,29.11
2022-07-28T10:26:36.729Z,29.19
2022-07-28T10:27:36.728Z,29.35
2022-07-28T10:28:41.952Z,29.52
2022-07-28T10:29:36.718Z,29.41
2022-07-28T10:30:36.764Z,29.24
2022-07-28T10:31:36.730Z,28.74
2022-07-28T10:32:36.722Z,28.42
2022-07-28T10:33:36.717Z,28.37
2022-07-28T10:34:36.739Z,28.33
2022-07-28T10:35:47.650Z,28.27
2022-07-28T10:36:36.720Z,28.34
2022-07-28T10:37:36.778Z,28.58
2022-07-28T10:38:36.744Z,28.63
2022-07-28T10:39:36.768Z,28.86
2022-07-28T10:40:36.760Z,29.09
2022-07-28T10:41:36.768Z,28.87
2022-07-28T10:42:36.777Z,28.89
2022-07-28T10:43:36.738Z,29.13
2022-07-28T10:44:36.743Z,29.47
2022-07-28T10:46:03.136Z,29.79
2022-07-28T10:46:36.801Z,29.93
2022-07-28T10:47:36.776Z,30.05
2022-07-28T10:48:36.805Z,30.30
2022-07-28T10:49:36.793Z,30.48
2022-07-28T10:50:36.760Z,30.61
2022-07-28T10:51:44.594Z,30.63
2022-07-28T10:52:47.270Z,30.76
2022-07-28T10:53:37.214Z,30.83
2022-07-28T10:54:36.860Z,30.89
2022-07-28T10:55:36.876Z,31.00
2022-07-28T10:56:36.893Z,31.20
2022-07-28T10:57:36.900Z,31.46
2022-07-28T10:58:36.915Z,31.52
2022-07-28T10:59:36.948Z,31.15
2022-07-28T11:00:54.567Z,30.97
2022-07-28T11:01:48.402Z,30.89
2022-07-28T11:02:37.034Z,30.89
2022-07-28T11:03:37.050Z,30.72
2022-07-28T11:04:36.951Z,30.56
2022-07-28T11:05:36.941Z,30.18
2022-07-28T11:06:36.961Z,29.95
2022-07-28T11:07:36.948Z,30.09
2022-07-28T11:08:36.946Z,30.04
2022-07-28T11:09:36.957Z,29.78
2022-07-28T11:10:36.966Z,29.93
2022-07-28T11:11:36.958Z,30.27
2022-07-28T11:12:36.985Z,30.70
2022-07-28T11:13:41.044Z,31.07
2022-07-28T11:14:38.101Z,31.47
2022-07-28T11:15:36.962Z,31.69
2022-07-28T11:16:37.096Z,31.48
2022-07-28T11:17:37.023Z,31.01
2022-07-28T11:18:36.980Z,30.68
2022-07-28T11:19:51.595Z,30.31
2022-07-28T11:20:36.961Z,30.20
2022-07-28T11:21:40.997Z,29.86
2022-07-28T11:22:36.995Z,29.74
2022-07-28T11:23:36.991Z,29.72
2022-07-28T11:24:36.959Z,29.82
2022-07-28T11:25:36.973Z,29.97
2022-07-28T11:26:36.972Z,30.02
2022-07-28T11:27:36.988Z,30.15
2022-07-28T11:28:36.982Z,30.02
2022-07-28T11:29:36.977Z,29.96
2022-07-28T11:30:37.179Z,29.84
2022-07-28T11:31:36.973Z,29.58
2022-07-28T11:32:44.134Z,29.43
2022-07-28T11:33:36.997Z,29.37
2022-07-28T11:34:36.993Z,29.30
2022-07-28T11:35:36.981Z,29.36
2022-07-28T11:36:36.992Z,29.57
2022-07-28T11:37:37.007Z,29.80
2022-07-28T11:38:37.000Z,30.00
2022-07-28T11:39:42.967Z,30.25
2022-07-28T11:40:37.013Z,30.28
2022-07-28T11:41:37.015Z,30.49
2022-07-28T11:42:37.008Z,30.42
2022-07-28T11:43:38.688Z,30.34
2022-07-28T11:44:37.017Z,30.47
2022-07-28T11:45:38.813Z,30.52
2022-07-28T11:46:37.726Z,30.62
2022-07-28T11:47:37.041Z,30.63
2022-07-28T11:48:37.149Z,30.62
2022-07-28T11:49:37.018Z,30.14
2022-07-28T11:50:37.001Z,29.80
2022-07-28T11:51:51.479Z,29.58
2022-07-28T11:52:37.025Z,29.49
2022-07-28T11:53:37.003Z,29.31
2022-07-28T11:54:37.018Z,28.83
2022-07-28T11:55:55.642Z,28.54
2022-07-28T11:56:37.121Z,28.66
2022-07-28T11:57:37.080Z,28.97
2022-07-28T11:58:37.053Z,29.46
2022-07-28T11:59:37.308Z,30.05
2022-07-28T12:00:37.024Z,30.27
2022-07-28T12:01:38.668Z,30.62
2022-07-28T12:02:37.144Z,31.06
2022-07-28T12:03:49.736Z,31.47
2022-07-28T12:04:37.102Z,31.59
2022-07-28T12:05:41.872Z,31.58
2022-07-28T12:06:37.046Z,31.69
2022-07-28T12:07:37.053Z,31.67
2022-07-28T12:08:37.040Z,31.56
2022-07-28T12:09:42.320Z,31.61
2022-07-28T12:10:54.388Z,31.66
2022-07-28T12:11:37.042Z,31.83
2022-07-28T12:12:37.065Z,32.11
2022-07-28T12:13:37.039Z,32.30
2022-07-28T12:14:39.002Z,32.27
2022-07-28T12:15:37.091Z,31.97
2022-07-28T12:16:37.094Z,31.76
2022-07-28T12:17:37.077Z,31.64
2022-07-28T12:18:37.052Z,31.23
2022-07-28T12:19:37.066Z,30.81
2022-07-28T12:20:37.070Z,30.61
2022-07-28T12:21:37.106Z,30.33
2022-07-28T12:22:37.067Z,29.84
2022-07-28T12:23:45.839Z,29.61
2022-07-28T12:24:45.518Z,29.51
2022-07-28T12:25:37.084Z,29.52
2022-07-28T12:26:40.608Z,29.50
2022-07-28T12:27:37.628Z,29.32
2022-07-28T12:28:37.089Z,29.07
2022-07-28T12:29:37.070Z,28.83
2022-07-28T12:30:37.074Z,28.71
2022-07-28T12:31:37.133Z,28.60
2022-07-28T12:32:37.107Z,28.48
2022-07-28T12:33:37.095Z,28.56
2022-07-28T12:34:37.058Z,28.69
2022-07-28T12:35:37.098Z,28.80
2022-07-28T12:36:37.075Z,28.84
2022-07-28T12:37:37.099Z,28.94
2022-07-28T12:38:37.085Z,29.17
2022-07-28T12:39:37.074Z,29.38
2022-07-28T12:40:37.092Z,29.40
2022-07-28T12:41:37.138Z,29.52
2022-07-28T12:42:37.090Z,29.70
2022-07-28T12:43:37.130Z,29.87
2022-07-28T12:44:37.085Z,29.85
2022-07-28T12:45:37.187Z,29.72
2022-07-28T12:46:37.146Z,29.51
2022-07-28T12:47:37.096Z,29.31
2022-07-28T12:48:37.148Z,29.12
2022-07-28T12:49:37.128Z,29.05
2022-07-28T12:50:37.169Z,29.07
2022-07-28T12:51:37.180Z,29.01
2022-07-28T12:52:37.190Z,28.93